createdAt,value
2018-02-08T00:01:10.386Z,16.43
2018-02-08T00:04:12.299Z,16.40
2018-02-08T00:07:14.279Z,16.41
2018-02-08T00:10:16.283Z,16.40
2018-02-08T00:13:18.179Z,16.38
2018-02-08T00:16:20.103Z,16.38
2018-02-08T00:19:22.070Z,16.37
2018-02-08T00:22:23.971Z,16.36
2018-02-08T00:25:25.874Z,16.34
2018-02-08T00:28:27.763Z,16.32
2018-02-08T00:31:29.646Z,16.32
2018-02-08T00:34:31.543Z,16.31
2018-02-08T00:37:33.564Z,16.31
2018-02-08T00:40:35.442Z,16.29
2018-02-08T00:43:37.443Z,16.28
2018-02-08T00:46:39.339Z,16.28
2018-02-08T00:49:41.328Z,16.27
2018-02-08T00:52:43.226Z,16.27
2018-02-08T00:55:45.135Z,16.25
2018-02-08T00:58:47.111Z,16.24
2018-02-08T01:01:49.023Z,16.23
2018-02-08T01:04:51.015Z,16.23
2018-02-08T01:07:53.011Z,16.24
2018-02-08T01:10:55.017Z,16.21
2018-02-08T01:13:57.011Z,16.22
2018-02-08T01:16:58.995Z,16.23
2018-02-08T01:20:00.901Z,16.20
2018-02-08T01:23:02.808Z,16.20
2018-02-08T01:26:04.783Z,16.20
2018-02-08T01:29:06.685Z,16.18
2018-02-08T01:32:08.943Z,16.18
2018-02-08T01:35:11.014Z,16.15
2018-02-08T01:38:12.976Z,16.15
2018-02-08T01:41:14.914Z,16.16
2018-02-08T01:44:16.811Z,16.14
2018-02-08T01:47:18.708Z,16.13
2018-02-08T01:50:20.603Z,16.13
2018-02-08T01:53:22.506Z,16.11
2018-02-08T01:56:24.499Z,16.12
2018-02-08T01:59:26.394Z,16.10
2018-02-08T02:02:28.528Z,16.10
2018-02-08T02:05:30.496Z,16.08
2018-02-08T02:08:32.491Z,16.08
2018-02-08T02:11:34.375Z,16.06
2018-02-08T02:14:36.271Z,16.05
2018-02-08T02:17:38.177Z,16.03
2018-02-08T02:20:40.067Z,16.04
2018-02-08T02:23:42.058Z,16.04
2018-02-08T02:26:43.967Z,16.01
2018-02-08T02:29:45.867Z,16.03
2018-02-08T02:32:47.768Z,16.01
2018-02-08T02:35:49.670Z,16.02
2018-02-08T02:38:51.555Z,16.00
2018-02-08T02:41:53.443Z,15.99
2018-02-08T02:44:55.355Z,16.00
2018-02-08T02:47:57.270Z,15.99
2018-02-08T02:50:59.172Z,15.98
2018-02-08T02:54:01.231Z,15.97
2018-02-08T02:57:03.206Z,15.95
2018-02-08T03:00:05.124Z,15.96
2018-02-08T03:03:07.015Z,15.97
2018-02-08T03:06:08.935Z,15.94
2018-02-08T03:09:10.904Z,15.92
2018-02-08T03:12:12.859Z,15.94
2018-02-08T03:15:14.804Z,15.92
2018-02-08T03:18:16.791Z,15.90
2018-02-08T03:21:18.770Z,15.90
2018-02-08T03:24:20.679Z,15.87
2018-02-08T03:27:22.586Z,15.89
2018-02-08T03:30:24.523Z,15.86
2018-02-08T03:33:26.486Z,15.88
2018-02-08T03:36:28.392Z,15.89
2018-02-08T03:39:30.527Z,15.86
2018-02-08T03:42:32.437Z,15.87
2018-02-08T03:45:34.340Z,15.86
2018-02-08T03:48:36.235Z,15.85
2018-02-08T03:51:38.264Z,15.83
2018-02-08T03:54:40.234Z,15.81
2018-02-08T03:57:42.144Z,15.84
2018-02-08T04:00:44.114Z,15.84
2018-02-08T04:03:46.011Z,15.82
2018-02-08T04:06:47.894Z,15.81
2018-02-08T04:09:49.798Z,15.79
2018-02-08T04:12:51.696Z,15.80
2018-02-08T04:15:53.594Z,15.77
2018-02-08T04:18:55.718Z,15.77
2018-02-08T04:21:57.692Z,15.78
2018-02-08T04:24:59.574Z,15.78
2018-02-08T04:28:01.479Z,15.76
2018-02-08T04:31:03.378Z,15.76
2018-02-08T04:34:05.373Z,15.74
2018-02-08T04:37:07.262Z,15.75
2018-02-08T04:40:09.270Z,15.75
2018-02-08T04:43:11.146Z,15.74
2018-02-08T04:46:13.066Z,15.71
2018-02-08T04:49:14.939Z,15.74
2018-02-08T04:52:16.847Z,15.76
2018-02-08T04:55:18.759Z,15.74
2018-02-08T04:58:20.740Z,15.76
2018-02-08T05:01:22.742Z,15.77
2018-02-08T05:04:24.643Z,15.80
2018-02-08T05:07:26.534Z,15.81
2018-02-08T05:10:28.427Z,15.84
2018-02-08T05:13:30.427Z,15.88
2018-02-08T05:16:32.423Z,15.91
2018-02-08T05:19:34.420Z,15.92
2018-02-08T05:22:36.314Z,15.95
2018-02-08T05:25:38.227Z,15.96
2018-02-08T05:28:40.234Z,15.99
2018-02-08T05:31:42.163Z,16.01
2018-02-08T05:34:44.123Z,16.02
2018-02-08T05:37:46.023Z,16.03
2018-02-08T05:40:48.034Z,16.07
2018-02-08T05:43:49.921Z,16.10
2018-02-08T05:46:51.818Z,16.14
2018-02-08T05:49:53.701Z,16.18
2018-02-08T05:52:55.660Z,16.22
2018-02-08T05:55:57.519Z,16.28
2018-02-08T05:58:59.419Z,16.33
2018-02-08T06:02:01.408Z,16.39
2018-02-08T06:05:03.312Z,16.45
2018-02-08T06:08:05.207Z,16.50
2018-02-08T06:11:07.103Z,16.54
2018-02-08T06:14:09.011Z,16.59
2018-02-08T06:17:10.996Z,16.63
2018-02-08T06:20:12.891Z,16.66
2018-02-08T06:23:14.787Z,16.70
2018-02-08T06:26:16.720Z,16.74
2018-02-08T06:29:18.708Z,16.78
2018-02-08T06:32:20.611Z,16.80
2018-02-08T06:35:22.515Z,16.83
2018-02-08T06:38:24.390Z,16.86
2018-02-08T06:41:26.279Z,16.87
2018-02-08T06:44:28.154Z,16.90
2018-02-08T06:47:30.039Z,16.92
2018-02-08T06:50:31.915Z,16.93
2018-02-08T06:53:33.804Z,16.95
2018-02-08T06:56:35.695Z,16.98
2018-02-08T06:59:37.567Z,16.99
2018-02-08T07:02:39.448Z,17.00
2018-02-08T07:05:41.382Z,17.01
2018-02-08T07:08:43.267Z,17.02
2018-02-08T07:11:45.154Z,17.03
2018-02-08T07:14:47.023Z,17.05
2018-02-08T07:17:48.899Z,17.04
2018-02-08T07:20:50.804Z,17.06
2018-02-08T07:23:52.690Z,17.07
2018-02-08T07:26:54.583Z,17.06
2018-02-08T07:29:56.455Z,17.04
2018-02-08T07:32:58.349Z,17.03
2018-02-08T07:36:00.227Z,17.02
2018-02-08T07:39:02.114Z,17.01
2018-02-08T07:42:03.996Z,16.99
2018-02-08T07:45:05.906Z,16.97
2018-02-08T07:48:07.787Z,16.96
2018-02-08T07:51:09.665Z,16.94
2018-02-08T07:54:11.551Z,16.92
2018-02-08T07:57:13.435Z,16.88
2018-02-08T08:00:15.322Z,16.92
2018-02-08T08:03:17.210Z,16.93
2018-02-08T08:06:19.091Z,16.90
2018-02-08T08:09:20.972Z,16.83
2018-02-08T08:12:22.860Z,16.82
2018-02-08T08:15:24.762Z,16.79
2018-02-08T08:18:26.635Z,16.78
2018-02-08T08:21:28.519Z,16.75
2018-02-08T08:24:30.399Z,16.75
2018-02-08T08:27:32.279Z,16.72
2018-02-08T08:30:34.152Z,16.72
2018-02-08T08:33:36.043Z,16.70
2018-02-08T08:36:37.934Z,16.68
2018-02-08T08:39:39.815Z,16.66
2018-02-08T08:42:41.704Z,16.63
2018-02-08T08:45:43.570Z,16.62
2018-02-08T08:48:45.458Z,16.60
2018-02-08T08:51:47.363Z,16.60
2018-02-08T08:54:49.258Z,16.59
2018-02-08T08:57:51.124Z,16.57
2018-02-08T09:00:53.005Z,16.56
2018-02-08T09:03:54.894Z,16.52
2018-02-08T09:06:56.767Z,16.54
2018-02-08T09:09:58.650Z,16.52
2018-02-08T09:13:00.535Z,16.51
2018-02-08T09:16:02.411Z,16.48
2018-02-08T09:19:04.309Z,16.48
2018-02-08T09:22:06.207Z,16.46
2018-02-08T09:25:08.081Z,16.45
2018-02-08T09:28:10.227Z,16.42
2018-02-08T09:31:12.106Z,16.40
2018-02-08T09:34:13.984Z,16.38
2018-02-08T09:37:15.871Z,16.37
2018-02-08T09:40:17.759Z,16.36
2018-02-08T09:43:19.631Z,16.35
2018-02-08T09:46:21.511Z,16.33
2018-02-08T09:49:23.404Z,16.30
2018-02-08T09:52:25.263Z,16.29
2018-02-08T09:55:27.151Z,16.26
2018-02-08T09:58:29.020Z,16.25
2018-02-08T10:01:30.904Z,16.25
2018-02-08T10:04:32.792Z,16.24
2018-02-08T10:07:34.674Z,16.20
2018-02-08T10:10:36.551Z,16.20
2018-02-08T10:13:38.439Z,16.19
2018-02-08T10:16:40.321Z,16.18
2018-02-08T10:19:42.198Z,16.17
2018-02-08T10:22:44.084Z,16.16
2018-02-08T10:25:45.963Z,16.14
2018-02-08T10:28:47.899Z,16.14
2018-02-08T10:31:49.819Z,16.13
2018-02-08T10:34:51.699Z,16.08
2018-02-08T10:37:53.582Z,16.08
2018-02-08T10:40:55.504Z,16.09
2018-02-08T10:43:57.390Z,16.08
2018-02-08T10:46:59.298Z,16.06
2018-02-08T10:50:01.240Z,16.04
2018-02-08T10:53:03.067Z,16.03
2018-02-08T10:56:04.943Z,16.04
2018-02-08T10:59:06.843Z,16.02
2018-02-08T11:02:08.727Z,16.01
2018-02-08T11:05:10.619Z,16.01
2018-02-08T11:08:12.510Z,16.00
2018-02-08T11:11:14.411Z,15.98
2018-02-08T11:14:16.313Z,15.96
2018-02-08T11:17:18.206Z,15.96
2018-02-08T11:20:20.151Z,15.95
2018-02-08T11:23:22.031Z,15.98
2018-02-08T11:26:23.911Z,15.99
2018-02-08T11:29:25.787Z,16.00
2018-02-08T11:32:27.731Z,16.02
2018-02-08T11:35:29.612Z,16.01
2018-02-08T11:38:31.495Z,16.01
2018-02-08T11:41:33.383Z,16.02
2018-02-08T11:44:35.264Z,16.06
2018-02-08T11:47:37.143Z,16.02
2018-02-08T11:50:39.055Z,15.97
2018-02-08T11:53:40.938Z,15.95
2018-02-08T11:56:42.827Z,15.94
2018-02-08T11:59:44.710Z,15.92
2018-02-08T12:02:46.588Z,15.91
2018-02-08T12:05:48.470Z,15.90
2018-02-08T12:08:50.350Z,15.88
2018-02-08T12:11:52.231Z,15.88
2018-02-08T12:14:54.119Z,15.88
2018-02-08T12:17:55.990Z,15.86
2018-02-08T12:20:57.887Z,15.85
2018-02-08T12:23:59.762Z,15.83
2018-02-08T12:27:01.633Z,15.82
2018-02-08T12:30:03.518Z,15.80
2018-02-08T12:33:05.395Z,15.79
2018-02-08T12:36:07.276Z,15.80
2018-02-08T12:39:09.171Z,15.78
2018-02-08T12:42:11.106Z,15.77
2018-02-08T12:45:12.959Z,15.77
2018-02-08T12:48:14.843Z,15.75
2018-02-08T12:51:16.730Z,15.74
2018-02-08T12:54:18.605Z,15.75
2018-02-08T12:57:20.478Z,15.73
2018-02-08T13:00:22.403Z,15.72
2018-02-08T13:03:24.278Z,15.72
2018-02-08T13:06:26.155Z,15.73
2018-02-08T13:09:28.039Z,15.69
2018-02-08T13:12:29.935Z,15.72
2018-02-08T13:15:31.814Z,15.70
2018-02-08T13:18:33.715Z,15.71
2018-02-08T13:21:35.591Z,15.68
2018-02-08T13:24:37.715Z,15.67
2018-02-08T13:27:39.595Z,15.66
2018-02-08T13:30:41.478Z,15.67
2018-02-08T13:33:43.358Z,15.68
2018-02-08T13:36:45.276Z,15.68
2018-02-08T13:39:47.190Z,15.66
2018-02-08T13:42:49.217Z,15.66
2018-02-08T13:45:51.125Z,15.65
2018-02-08T13:48:53.043Z,15.65
2018-02-08T13:51:55.111Z,15.66
2018-02-08T13:54:57.010Z,15.63
2018-02-08T13:57:59.035Z,15.62
2018-02-08T14:01:00.930Z,15.62
2018-02-08T14:04:02.808Z,15.60
2018-02-08T14:07:04.678Z,15.61
2018-02-08T14:10:06.579Z,15.59
2018-02-08T14:13:08.502Z,15.60
2018-02-08T14:16:10.355Z,15.58
2018-02-08T14:19:12.249Z,15.58
2018-02-08T14:22:14.126Z,15.59
2018-02-08T14:25:15.999Z,15.57
2018-02-08T14:28:17.891Z,15.56
2018-02-08T14:31:19.835Z,15.56
2018-02-08T14:34:21.731Z,15.55
2018-02-08T14:37:23.627Z,15.55
2018-02-08T14:40:25.514Z,15.54
2018-02-08T14:43:27.390Z,15.54
2018-02-08T14:46:29.270Z,15.53
2018-02-08T14:49:31.164Z,15.54
2018-02-08T14:52:33.040Z,15.56
2018-02-08T14:55:34.923Z,15.59
2018-02-08T14:58:36.803Z,15.60
2018-02-08T15:01:38.699Z,15.62
2018-02-08T15:04:40.583Z,15.64
2018-02-08T15:07:42.462Z,15.62
2018-02-08T15:10:44.370Z,15.56
2018-02-08T15:13:46.252Z,15.56
2018-02-08T15:16:48.163Z,15.54
2018-02-08T15:19:50.051Z,15.51
2018-02-08T15:22:51.960Z,15.52
2018-02-08T15:25:53.846Z,15.50
2018-02-08T15:28:55.731Z,15.51
2018-02-08T15:31:57.647Z,15.51
2018-02-08T15:34:59.546Z,15.50
2018-02-08T15:38:01.431Z,15.51
2018-02-08T15:41:03.323Z,15.54
2018-02-08T15:44:05.207Z,15.55
2018-02-08T15:47:07.095Z,15.58
2018-02-08T15:50:08.975Z,15.56
2018-02-08T15:53:10.879Z,15.52
2018-02-08T15:56:12.759Z,15.52
2018-02-08T15:59:14.655Z,15.50
2018-02-08T16:02:16.534Z,15.49
2018-02-08T16:05:18.815Z,15.47
2018-02-08T16:08:20.698Z,15.47
2018-02-08T16:11:22.571Z,15.44
2018-02-08T16:14:24.468Z,15.45
2018-02-08T16:17:26.343Z,15.45
2018-02-08T16:20:28.240Z,15.44
2018-02-08T16:23:30.126Z,15.44
2018-02-08T16:26:32.032Z,15.45
2018-02-08T16:29:33.927Z,15.43
2018-02-08T16:32:35.798Z,15.38
2018-02-08T16:35:37.724Z,15.42
2018-02-08T16:38:39.566Z,15.41
2018-02-08T16:41:41.452Z,15.40
2018-02-08T16:44:43.355Z,15.41
2018-02-08T16:47:45.254Z,15.40
2018-02-08T16:50:47.140Z,15.40
2018-02-08T16:53:49.023Z,15.38
2018-02-08T16:56:50.934Z,15.38
2018-02-08T16:59:52.782Z,15.38
2018-02-08T17:02:54.663Z,15.35
2018-02-08T17:05:56.552Z,15.36
2018-02-08T17:08:58.435Z,15.35
2018-02-08T17:12:00.335Z,15.35
2018-02-08T17:15:02.330Z,15.35
2018-02-08T17:18:04.319Z,15.34
2018-02-08T17:21:06.238Z,15.34
2018-02-08T17:24:08.183Z,15.33
2018-02-08T17:27:10.054Z,15.32
2018-02-08T17:30:11.951Z,15.36
2018-02-08T17:33:13.833Z,15.36
2018-02-08T17:36:15.725Z,15.36
2018-02-08T17:39:17.611Z,15.37
2018-02-08T17:42:19.531Z,15.39
2018-02-08T17:45:21.423Z,15.43
2018-02-08T17:48:23.303Z,15.46
2018-02-08T17:51:25.190Z,15.52
2018-02-08T17:54:27.080Z,15.54
2018-02-08T17:57:28.983Z,15.59
2018-02-08T18:00:30.995Z,15.63
2018-02-08T18:03:32.971Z,15.67
2018-02-08T18:06:34.963Z,15.73
2018-02-08T18:09:36.959Z,15.79
2018-02-08T18:12:38.896Z,15.84
2018-02-08T18:15:40.775Z,16.12
2018-02-08T18:18:42.660Z,16.31
2018-02-08T18:21:44.559Z,16.33
2018-02-08T18:24:46.452Z,16.39
2018-02-08T18:27:48.343Z,16.43
2018-02-08T18:30:50.231Z,16.49
2018-02-08T18:33:52.111Z,16.53
2018-02-08T18:36:53.995Z,16.63
2018-02-08T18:39:55.881Z,16.74
2018-02-08T18:42:58.048Z,16.70
2018-02-08T18:45:59.958Z,16.71
2018-02-08T18:49:01.843Z,16.70
2018-02-08T18:52:03.723Z,16.70
2018-02-08T18:55:05.611Z,16.69
2018-02-08T18:58:07.489Z,16.70
2018-02-08T19:01:09.372Z,16.69
2018-02-08T19:04:11.280Z,16.70
2018-02-08T19:07:13.167Z,16.70
2018-02-08T19:10:15.050Z,16.69
2018-02-08T19:13:16.934Z,16.67
2018-02-08T19:16:18.836Z,16.61
2018-02-08T19:19:21.607Z,16.65
2018-02-08T19:22:23.483Z,16.81
2018-02-08T19:25:25.367Z,16.87
2018-02-08T19:28:27.257Z,16.94
2018-02-08T19:31:29.151Z,16.94
2018-02-08T19:34:31.067Z,16.96
2018-02-08T19:37:32.968Z,16.96
2018-02-08T19:40:35.384Z,16.96
2018-02-08T19:43:37.270Z,16.98
2018-02-08T19:46:39.171Z,17.06
2018-02-08T19:49:41.376Z,17.05
2018-02-08T19:52:43.255Z,17.03
2018-02-08T19:55:45.134Z,17.09
2018-02-08T20:01:48.611Z,17.17
2018-02-08T20:04:50.504Z,17.20
2018-02-08T20:07:52.413Z,17.23
2018-02-08T20:10:54.307Z,17.25
2018-02-08T20:13:56.222Z,17.27
2018-02-08T20:16:58.090Z,17.31
2018-02-08T20:19:59.971Z,17.36
2018-02-08T20:23:01.890Z,17.34
2018-02-08T20:26:03.771Z,17.33
2018-02-08T20:29:05.740Z,17.34
2018-02-08T20:32:07.619Z,17.40
2018-02-08T20:35:09.487Z,17.39
2018-02-08T20:38:11.399Z,17.41
2018-02-08T20:41:13.299Z,17.39
2018-02-08T20:44:15.187Z,17.37
2018-02-08T20:47:17.147Z,17.34
2018-02-08T20:50:19.093Z,17.32
2018-02-08T20:53:20.961Z,17.34
2018-02-08T20:56:22.835Z,17.33
2018-02-08T20:59:24.718Z,17.31
2018-02-08T21:02:26.600Z,17.30
2018-02-08T21:05:28.487Z,17.28
2018-02-08T21:08:30.396Z,17.46
2018-02-08T21:11:32.316Z,17.25
2018-02-08T21:14:34.255Z,17.14
2018-02-08T21:17:36.142Z,17.07
2018-02-08T21:20:38.051Z,17.02
2018-02-08T21:23:39.939Z,16.99
2018-02-08T21:26:42.883Z,16.96
2018-02-08T21:29:44.878Z,16.92
2018-02-08T21:32:46.869Z,16.91
2018-02-08T21:35:48.862Z,16.87
2018-02-08T21:38:50.763Z,16.84
2018-02-08T21:41:52.770Z,16.83
2018-02-08T21:44:54.751Z,16.80
2018-02-08T21:47:56.679Z,16.77
2018-02-08T21:50:58.684Z,16.75
2018-02-08T21:54:00.670Z,16.71
2018-02-08T21:57:02.646Z,16.72
2018-02-08T22:00:04.659Z,16.69
2018-02-08T22:03:06.635Z,16.68
2018-02-08T22:06:08.523Z,16.65
2018-02-08T22:09:10.428Z,16.64
2018-02-08T22:12:12.330Z,16.60
2018-02-08T22:15:14.223Z,16.60
2018-02-08T22:18:16.222Z,16.57
2018-02-08T22:21:18.128Z,16.57
2018-02-08T22:24:20.094Z,16.54
2018-02-08T22:27:22.007Z,16.53
2018-02-08T22:30:23.914Z,16.53
2018-02-08T22:33:25.822Z,16.49
2018-02-08T22:36:27.883Z,16.48
2018-02-08T22:39:29.822Z,16.46
2018-02-08T22:42:31.719Z,16.43
2018-02-08T22:45:33.711Z,16.43
2018-02-08T22:48:35.607Z,16.38
2018-02-08T22:51:37.503Z,16.36
2018-02-08T22:54:39.499Z,16.34
2018-02-08T22:57:41.423Z,16.31
2018-02-08T23:00:43.399Z,16.31
2018-02-08T23:03:45.542Z,16.27
2018-02-08T23:06:47.502Z,16.25
2018-02-08T23:09:49.494Z,16.22
2018-02-08T23:12:51.495Z,16.23
2018-02-08T23:15:53.490Z,16.19
2018-02-08T23:18:55.407Z,16.18
2018-02-08T23:21:57.382Z,16.18
2018-02-08T23:24:59.282Z,16.17
2018-02-08T23:28:01.163Z,16.14
2018-02-08T23:31:03.068Z,16.13
2018-02-08T23:34:04.966Z,16.11
2018-02-08T23:37:06.972Z,16.07
2018-02-08T23:40:08.958Z,16.08
2018-02-08T23:43:10.878Z,16.09
2018-02-08T23:46:12.846Z,16.04
2018-02-08T23:49:15.158Z,16.05
2018-02-08T23:52:17.154Z,16.04
2018-02-08T23:55:19.390Z,16.01
2018-02-08T23:58:21.363Z,16.01
